sensor_id;sensor_type;location;lat;lon;timestamp;pressure;altitude;pressure_sealevel;temperature;humidity
38612;BME280;24368;52.156;20.788;2023-02-13T00:03:13;102142.59;;;3.01;100.00
38612;BME280;24368;52.156;20.788;2023-02-13T00:08:15;102130.23;;;3.06;100.00
38612;BME280;24368;52.156;20.788;2023-02-13T00:13:17;102127.04;;;3.07;100.00
38612;BME280;24368;52.156;20.788;2023-02-13T00:18:19;102137.45;;;3.12;100.00
38612;BME280;24368;52.156;20.788;2023-02-13T00:23:21;102136.27;;;3.11;100.00
38612;BME280;24368;52.156;20.788;2023-02-13T00:28:22;102128.31;;;3.14;100.00
38612;BME280;24368;52.156;20.788;2023-02-13T00:33:24;102126.27;;;3.17;100.00
38612;BME280;24368;52.156;20.788;2023-02-13T00:38:28;102117.38;;;3.22;100.00
38612;BME280;24368;52.156;20.788;2023-02-13T00:43:31;102115.84;;;3.21;100.00
38612;BME280;24368;52.156;20.788;2023-02-13T00:48:34;102119.66;;;3.12;100.00
38612;BME280;24368;52.156;20.788;2023-02-13T00:53:36;102127.45;;;3.14;100.00
38612;BME280;24368;52.156;20.788;2023-02-13T00:58:38;102130.10;;;3.17;100.00
38612;BME280;24368;52.156;20.788;2023-02-13T01:03:40;102124.95;;;3.16;100.00
38612;BME280;24368;52.156;20.788;2023-02-13T01:08:42;102117.08;;;3.16;100.00
38612;BME280;24368;52.156;20.788;2023-02-13T01:13:44;102119.77;;;3.19;100.00
38612;BME280;24368;52.156;20.788;2023-02-13T01:18:46;102109.73;;;3.21;100.00
38612;BME280;24368;52.156;20.788;2023-02-13T01:23:48;102107.61;;;3.27;100.00
38612;BME280;24368;52.156;20.788;2023-02-13T01:28:53;102112.67;;;3.22;100.00
38612;BME280;24368;52.156;20.788;2023-02-13T01:33:56;102107.63;;;3.22;100.00
38612;BME280;24368;52.156;20.788;2023-02-13T01:38:58;102106.73;;;3.22;100.00
38612;BME280;24368;52.156;20.788;2023-02-13T01:44:00;102100.00;;;3.25;100.00
38612;BME280;24368;52.156;20.788;2023-02-13T01:49:12;102098.83;;;3.32;100.00
38612;BME280;24368;52.156;20.788;2023-02-13T01:54:20;102097.09;;;3.32;100.00
38612;BME280;24368;52.156;20.788;2023-02-13T01:59:27;102098.98;;;3.33;100.00
38612;BME280;24368;52.156;20.788;2023-02-13T02:04:35;102103.02;;;3.32;100.00
38612;BME280;24368;52.156;20.788;2023-02-13T02:09:41;102104.54;;;3.25;100.00
38612;BME280;24368;52.156;20.788;2023-02-13T02:14:44;102098.09;;;3.29;100.00
38612;BME280;24368;52.156;20.788;2023-02-13T02:36:10;102102.42;;;3.34;100.00
38612;BME280;24368;52.156;20.788;2023-02-13T02:46:57;102099.73;;;3.31;100.00
38612;BME280;24368;52.156;20.788;2023-02-13T02:52:28;102104.93;;;3.32;100.00
38612;BME280;24368;52.156;20.788;2023-02-13T02:57:44;102111.08;;;3.31;100.00
38612;BME280;24368;52.156;20.788;2023-02-13T03:03:22;102116.72;;;3.38;100.00
38612;BME280;24368;52.156;20.788;2023-02-13T03:08:46;102117.02;;;3.39;100.00
38612;BME280;24368;52.156;20.788;2023-02-13T03:14:14;102122.80;;;3.38;100.00
38612;BME280;24368;52.156;20.788;2023-02-13T03:19:22;102118.64;;;3.33;100.00
38612;BME280;24368;52.156;20.788;2023-02-13T03:30:08;102120.52;;;3.38;100.00
38612;BME280;24368;52.156;20.788;2023-02-13T03:47:20;102118.67;;;3.41;100.00
38612;BME280;24368;52.156;20.788;2023-02-13T03:57:24;102116.05;;;3.41;100.00
38612;BME280;24368;52.156;20.788;2023-02-13T04:07:56;102105.13;;;3.44;100.00
38612;BME280;24368;52.156;20.788;2023-02-13T04:13:14;102100.63;;;3.47;100.00
38612;BME280;24368;52.156;20.788;2023-02-13T04:18:28;102100.52;;;3.50;100.00
38612;BME280;24368;52.156;20.788;2023-02-13T04:23:30;102107.59;;;3.48;100.00
38612;BME280;24368;52.156;20.788;2023-02-13T04:28:32;102110.63;;;3.50;100.00
38612;BME280;24368;52.156;20.788;2023-02-13T04:33:34;102112.59;;;3.53;100.00
38612;BME280;24368;52.156;20.788;2023-02-13T04:38:35;102109.02;;;3.55;100.00
38612;BME280;24368;52.156;20.788;2023-02-13T04:43:37;102105.23;;;3.54;100.00
38612;BME280;24368;52.156;20.788;2023-02-13T04:48:39;102108.83;;;3.55;100.00
38612;BME280;24368;52.156;20.788;2023-02-13T04:53:41;102112.81;;;3.52;100.00
38612;BME280;24368;52.156;20.788;2023-02-13T04:58:43;102103.80;;;3.55;100.00
38612;BME280;24368;52.156;20.788;2023-02-13T05:03:44;102104.20;;;3.57;100.00
38612;BME280;24368;52.156;20.788;2023-02-13T05:08:46;102104.23;;;3.53;100.00
38612;BME280;24368;52.156;20.788;2023-02-13T05:13:48;102104.19;;;3.54;100.00
38612;BME280;24368;52.156;20.788;2023-02-13T05:18:50;102100.76;;;3.53;100.00
38612;BME280;24368;52.156;20.788;2023-02-13T05:23:55;102098.98;;;3.53;100.00
38612;BME280;24368;52.156;20.788;2023-02-13T05:28:57;102102.60;;;3.54;100.00
38612;BME280;24368;52.156;20.788;2023-02-13T05:34:19;102099.70;;;3.57;100.00
38612;BME280;24368;52.156;20.788;2023-02-13T05:39:21;102106.34;;;3.77;100.00
38612;BME280;24368;52.156;20.788;2023-02-13T05:44:23;102114.64;;;3.78;100.00
38612;BME280;24368;52.156;20.788;2023-02-13T05:49:25;102116.76;;;3.74;100.00
38612;BME280;24368;52.156;20.788;2023-02-13T05:54:26;102120.67;;;3.80;100.00
38612;BME280;24368;52.156;20.788;2023-02-13T05:59:28;102126.14;;;3.82;100.00
38612;BME280;24368;52.156;20.788;2023-02-13T06:04:30;102129.38;;;3.80;100.00
38612;BME280;24368;52.156;20.788;2023-02-13T06:09:31;102130.45;;;3.76;100.00
38612;BME280;24368;52.156;20.788;2023-02-13T06:14:33;102134.14;;;3.83;100.00
38612;BME280;24368;52.156;20.788;2023-02-13T06:19:35;102127.14;;;3.79;100.00
38612;BME280;24368;52.156;20.788;2023-02-13T06:24:37;102124.95;;;3.81;100.00
38612;BME280;24368;52.156;20.788;2023-02-13T06:29:39;102127.80;;;3.80;100.00
38612;BME280;24368;52.156;20.788;2023-02-13T06:34:40;102126.23;;;3.84;100.00
38612;BME280;24368;52.156;20.788;2023-02-13T06:39:42;102134.14;;;3.83;100.00
38612;BME280;24368;52.156;20.788;2023-02-13T06:44:44;102136.80;;;3.82;100.00
38612;BME280;24368;52.156;20.788;2023-02-13T06:49:46;102142.31;;;3.80;100.00
38612;BME280;24368;52.156;20.788;2023-02-13T06:54:48;102143.80;;;3.81;100.00
38612;BME280;24368;52.156;20.788;2023-02-13T06:59:49;102150.50;;;3.84;100.00
38612;BME280;24368;52.156;20.788;2023-02-13T07:04:51;102152.48;;;3.94;100.00
38612;BME280;24368;52.156;20.788;2023-02-13T07:09:53;102158.23;;;3.94;100.00
38612;BME280;24368;52.156;20.788;2023-02-13T07:14:55;102153.90;;;3.98;100.00
38612;BME280;24368;52.156;20.788;2023-02-13T07:19:56;102145.53;;;4.05;100.00
38612;BME280;24368;52.156;20.788;2023-02-13T07:24:59;102137.42;;;4.03;100.00
38612;BME280;24368;52.156;20.788;2023-02-13T07:30:01;102139.16;;;3.99;100.00
38612;BME280;24368;52.156;20.788;2023-02-13T07:35:03;102146.73;;;4.09;100.00
38612;BME280;24368;52.156;20.788;2023-02-13T07:40:05;102147.21;;;4.14;100.00
38612;BME280;24368;52.156;20.788;2023-02-13T07:45:08;102146.64;;;4.19;100.00
38612;BME280;24368;52.156;20.788;2023-02-13T07:50:10;102154.20;;;4.06;100.00
38612;BME280;24368;52.156;20.788;2023-02-13T07:55:13;102148.84;;;4.01;100.00
38612;BME280;24368;52.156;20.788;2023-02-13T08:00:15;102143.02;;;4.19;100.00
38612;BME280;24368;52.156;20.788;2023-02-13T08:05:17;102136.16;;;4.15;100.00
38612;BME280;24368;52.156;20.788;2023-02-13T08:10:19;102130.71;;;4.28;100.00
38612;BME280;24368;52.156;20.788;2023-02-13T08:15:39;102130.84;;;4.37;100.00
38612;BME280;24368;52.156;20.788;2023-02-13T08:20:41;102125.98;;;4.44;100.00
38612;BME280;24368;52.156;20.788;2023-02-13T08:25:43;102117.53;;;4.53;100.00
38612;BME280;24368;52.156;20.788;2023-02-13T08:30:45;102112.16;;;4.63;100.00
38612;BME280;24368;52.156;20.788;2023-02-13T08:35:47;102118.70;;;4.58;100.00
38612;BME280;24368;52.156;20.788;2023-02-13T08:40:49;102112.66;;;4.64;100.00
38612;BME280;24368;52.156;20.788;2023-02-13T08:45:50;102115.91;;;4.80;100.00
38612;BME280;24368;52.156;20.788;2023-02-13T08:50:52;102127.28;;;5.23;100.00
38612;BME280;24368;52.156;20.788;2023-02-13T08:55:56;102116.88;;;5.18;100.00
38612;BME280;24368;52.156;20.788;2023-02-13T09:00:58;102120.55;;;5.10;100.00
38612;BME280;24368;52.156;20.788;2023-02-13T09:06:00;102113.51;;;5.04;100.00
38612;BME280;24368;52.156;20.788;2023-02-13T09:11:03;102105.36;;;5.06;100.00
38612;BME280;24368;52.156;20.788;2023-02-13T09:16:07;102105.31;;;5.22;100.00
38612;BME280;24368;52.156;20.788;2023-02-13T09:21:11;102107.11;;;5.28;100.00
38612;BME280;24368;52.156;20.788;2023-02-13T09:26:14;102109.60;;;5.20;100.00
38612;BME280;24368;52.156;20.788;2023-02-13T09:31:18;102108.41;;;5.15;100.00
38612;BME280;24368;52.156;20.788;2023-02-13T09:36:22;102112.52;;;5.13;100.00
38612;BME280;24368;52.156;20.788;2023-02-13T09:41:31;102115.77;;;5.01;100.00
38612;BME280;24368;52.156;20.788;2023-02-13T09:46:37;102113.70;;;4.97;100.00
38612;BME280;24368;52.156;20.788;2023-02-13T09:51:42;102106.05;;;4.93;100.00
38612;BME280;24368;52.156;20.788;2023-02-13T09:56:54;102104.80;;;4.75;100.00
38612;BME280;24368;52.156;20.788;2023-02-13T10:02:13;102100.36;;;4.73;100.00
38612;BME280;24368;52.156;20.788;2023-02-13T10:18:15;102117.98;;;4.84;100.00
38612;BME280;24368;52.156;20.788;2023-02-13T10:23:41;102127.95;;;4.84;100.00
38612;BME280;24368;52.156;20.788;2023-02-13T10:29:03;102125.67;;;4.84;100.00
38612;BME280;24368;52.156;20.788;2023-02-13T10:34:28;102120.55;;;4.75;100.00
38612;BME280;24368;52.156;20.788;2023-02-13T10:39:32;102114.36;;;4.68;100.00
38612;BME280;24368;52.156;20.788;2023-02-13T10:50:09;102097.20;;;4.84;100.00
38612;BME280;24368;52.156;20.788;2023-02-13T11:00:29;102094.66;;;4.93;100.00
38612;BME280;24368;52.156;20.788;2023-02-13T11:05:38;102086.36;;;4.95;100.00
38612;BME280;24368;52.156;20.788;2023-02-13T11:10:40;102080.48;;;4.97;100.00
38612;BME280;24368;52.156;20.788;2023-02-13T11:15:42;102081.85;;;4.95;100.00
38612;BME280;24368;52.156;20.788;2023-02-13T11:21:21;102078.14;;;4.85;100.00
38612;BME280;24368;52.156;20.788;2023-02-13T11:26:33;102080.41;;;4.84;100.00
38612;BME280;24368;52.156;20.788;2023-02-13T11:31:36;102076.02;;;4.92;100.00
38612;BME280;24368;52.156;20.788;2023-02-13T11:36:39;102075.19;;;4.95;100.00
38612;BME280;24368;52.156;20.788;2023-02-13T11:41:42;102066.86;;;5.01;100.00
38612;BME280;24368;52.156;20.788;2023-02-13T11:46:49;102062.36;;;5.07;100.00
38612;BME280;24368;52.156;20.788;2023-02-13T11:52:00;102063.61;;;5.13;100.00
38612;BME280;24368;52.156;20.788;2023-02-13T12:07:22;102049.11;;;5.13;100.00
38612;BME280;24368;52.156;20.788;2023-02-13T12:12:27;102040.59;;;5.20;100.00
38612;BME280;24368;52.156;20.788;2023-02-13T12:17:31;102033.95;;;5.19;100.00
38612;BME280;24368;52.156;20.788;2023-02-13T12:28:19;102015.51;;;5.11;100.00
38612;BME280;24368;52.156;20.788;2023-02-13T12:44:42;102007.52;;;6.56;100.00
38612;BME280;24368;52.156;20.788;2023-02-13T13:00:40;102000.75;;;5.53;100.00
38612;BME280;24368;52.156;20.788;2023-02-13T13:11:28;101977.67;;;5.43;100.00
38612;BME280;24368;52.156;20.788;2023-02-13T13:21:52;101972.07;;;5.43;100.00
38612;BME280;24368;52.156;20.788;2023-02-13T13:26:58;101958.27;;;5.33;100.00
38612;BME280;24368;52.156;20.788;2023-02-13T13:32:05;101957.39;;;5.40;100.00
38612;BME280;24368;52.156;20.788;2023-02-13T13:37:13;101956.07;;;5.35;100.00
38612;BME280;24368;52.156;20.788;2023-02-13T13:42:42;101957.11;;;5.32;100.00
38612;BME280;24368;52.156;20.788;2023-02-13T13:53:16;101961.41;;;5.20;100.00
38612;BME280;24368;52.156;20.788;2023-02-13T14:03:33;101957.02;;;5.31;100.00
38612;BME280;24368;52.156;20.788;2023-02-13T14:13:41;101944.73;;;5.35;100.00
38612;BME280;24368;52.156;20.788;2023-02-13T14:18:46;101946.13;;;5.35;100.00
38612;BME280;24368;52.156;20.788;2023-02-13T14:23:49;101952.34;;;5.26;100.00
38612;BME280;24368;52.156;20.788;2023-02-13T14:28:57;101935.95;;;5.19;100.00
38612;BME280;24368;52.156;20.788;2023-02-13T14:39:04;101926.48;;;5.16;100.00
38612;BME280;24368;52.156;20.788;2023-02-13T14:44:17;101927.75;;;5.15;100.00
38612;BME280;24368;52.156;20.788;2023-02-13T14:54:35;101942.02;;;5.16;100.00
38612;BME280;24368;52.156;20.788;2023-02-13T14:59:43;101936.03;;;5.17;100.00
38612;BME280;24368;52.156;20.788;2023-02-13T15:05:13;101933.52;;;5.12;100.00
38612;BME280;24368;52.156;20.788;2023-02-13T15:10:39;101929.11;;;5.13;100.00
38612;BME280;24368;52.156;20.788;2023-02-13T15:15:42;101927.40;;;5.12;100.00
38612;BME280;24368;52.156;20.788;2023-02-13T15:20:43;101926.88;;;5.12;100.00
38612;BME280;24368;52.156;20.788;2023-02-13T15:25:58;101901.40;;;5.05;100.00
38612;BME280;24368;52.156;20.788;2023-02-13T15:31:04;101905.31;;;5.04;100.00
38612;BME280;24368;52.156;20.788;2023-02-13T15:36:12;101900.02;;;4.98;100.00
38612;BME280;24368;52.156;20.788;2023-02-13T15:41:20;101895.69;;;5.00;100.00
38612;BME280;24368;52.156;20.788;2023-02-13T15:46:27;101897.11;;;4.94;100.00
38612;BME280;24368;52.156;20.788;2023-02-13T15:51:30;101896.61;;;4.89;100.00
38612;BME280;24368;52.156;20.788;2023-02-13T15:56:35;101906.85;;;4.91;100.00
38612;BME280;24368;52.156;20.788;2023-02-13T16:01:40;101907.82;;;4.85;100.00
38612;BME280;24368;52.156;20.788;2023-02-13T16:06:45;101917.98;;;4.85;100.00
38612;BME280;24368;52.156;20.788;2023-02-13T16:11:48;101923.77;;;4.84;100.00
38612;BME280;24368;52.156;20.788;2023-02-13T16:17:03;101916.89;;;4.86;100.00
38612;BME280;24368;52.156;20.788;2023-02-13T16:22:17;101920.59;;;4.85;100.00
38612;BME280;24368;52.156;20.788;2023-02-13T16:27:25;101915.86;;;4.82;100.00
38612;BME280;24368;52.156;20.788;2023-02-13T16:32:30;101915.61;;;4.80;100.00
38612;BME280;24368;52.156;20.788;2023-02-13T16:37:33;101911.94;;;4.77;100.00
38612;BME280;24368;52.156;20.788;2023-02-13T16:42:35;101932.29;;;4.78;100.00
38612;BME280;24368;52.156;20.788;2023-02-13T16:47:37;101933.44;;;4.80;100.00
38612;BME280;24368;52.156;20.788;2023-02-13T16:52:39;101942.42;;;4.82;100.00
38612;BME280;24368;52.156;20.788;2023-02-13T16:57:41;101939.08;;;4.76;100.00
38612;BME280;24368;52.156;20.788;2023-02-13T17:02:46;101938.95;;;4.78;100.00
38612;BME280;24368;52.156;20.788;2023-02-13T17:07:51;101932.77;;;4.76;100.00
38612;BME280;24368;52.156;20.788;2023-02-13T17:12:56;101931.70;;;4.73;100.00
38612;BME280;24368;52.156;20.788;2023-02-13T17:17:59;101940.65;;;4.72;100.00
38612;BME280;24368;52.156;20.788;2023-02-13T17:23:03;101943.44;;;4.72;100.00
38612;BME280;24368;52.156;20.788;2023-02-13T17:28:15;101933.31;;;4.72;100.00
38612;BME280;24368;52.156;20.788;2023-02-13T17:33:26;101922.16;;;4.75;100.00
38612;BME280;24368;52.156;20.788;2023-02-13T17:38:29;101917.34;;;4.71;100.00
38612;BME280;24368;52.156;20.788;2023-02-13T17:43:30;101923.09;;;4.71;100.00
38612;BME280;24368;52.156;20.788;2023-02-13T17:48:32;101925.71;;;4.70;100.00
38612;BME280;24368;52.156;20.788;2023-02-13T17:53:34;101937.05;;;4.71;100.00
38612;BME280;24368;52.156;20.788;2023-02-13T17:58:37;101936.66;;;4.68;100.00
38612;BME280;24368;52.156;20.788;2023-02-13T18:03:38;101946.22;;;4.65;100.00
38612;BME280;24368;52.156;20.788;2023-02-13T18:08:40;101953.61;;;4.67;100.00
38612;BME280;24368;52.156;20.788;2023-02-13T18:13:42;101964.10;;;4.63;100.00
38612;BME280;24368;52.156;20.788;2023-02-13T18:18:48;101972.34;;;4.63;100.00
38612;BME280;24368;52.156;20.788;2023-02-13T18:23:53;101971.14;;;4.59;100.00
38612;BME280;24368;52.156;20.788;2023-02-13T18:28:55;101970.49;;;4.51;100.00
38612;BME280;24368;52.156;20.788;2023-02-13T18:33:57;101974.64;;;4.48;100.00
38612;BME280;24368;52.156;20.788;2023-02-13T18:38:59;101982.83;;;4.41;100.00
38612;BME280;24368;52.156;20.788;2023-02-13T18:44:01;101984.63;;;4.40;100.00
38612;BME280;24368;52.156;20.788;2023-02-13T18:49:04;101983.42;;;4.40;100.00
38612;BME280;24368;52.156;20.788;2023-02-13T18:54:06;101971.89;;;4.36;100.00
38612;BME280;24368;52.156;20.788;2023-02-13T18:59:07;101985.48;;;4.30;100.00
38612;BME280;24368;52.156;20.788;2023-02-13T19:04:09;101983.61;;;4.32;100.00
38612;BME280;24368;52.156;20.788;2023-02-13T19:09:12;101985.91;;;4.28;100.00
38612;BME280;24368;52.156;20.788;2023-02-13T19:14:14;101988.11;;;4.29;100.00
38612;BME280;24368;52.156;20.788;2023-02-13T19:19:16;101990.35;;;4.26;100.00
38612;BME280;24368;52.156;20.788;2023-02-13T19:24:18;101988.11;;;4.29;100.00
38612;BME280;24368;52.156;20.788;2023-02-13T19:29:20;101987.41;;;4.26;100.00
38612;BME280;24368;52.156;20.788;2023-02-13T19:34:22;101985.06;;;4.28;100.00
38612;BME280;24368;52.156;20.788;2023-02-13T19:39:24;101996.64;;;4.26;100.00
38612;BME280;24368;52.156;20.788;2023-02-13T19:44:26;102001.45;;;4.24;100.00
38612;BME280;24368;52.156;20.788;2023-02-13T19:49:28;102001.67;;;4.27;100.00
38612;BME280;24368;52.156;20.788;2023-02-13T19:54:30;102012.40;;;4.25;100.00
38612;BME280;24368;52.156;20.788;2023-02-13T19:59:32;102014.97;;;4.23;100.00
38612;BME280;24368;52.156;20.788;2023-02-13T20:04:34;102014.40;;;4.27;100.00
38612;BME280;24368;52.156;20.788;2023-02-13T20:09:38;102016.54;;;4.23;100.00
38612;BME280;24368;52.156;20.788;2023-02-13T20:14:40;102020.27;;;4.21;100.00
38612;BME280;24368;52.156;20.788;2023-02-13T20:19:42;102018.60;;;4.23;100.00
38612;BME280;24368;52.156;20.788;2023-02-13T20:24:44;102016.80;;;4.16;100.00
38612;BME280;24368;52.156;20.788;2023-02-13T20:29:47;102017.60;;;4.18;100.00
38612;BME280;24368;52.156;20.788;2023-02-13T20:34:49;102017.25;;;4.18;100.00
38612;BME280;24368;52.156;20.788;2023-02-13T20:39:51;102021.70;;;4.16;100.00
38612;BME280;24368;52.156;20.788;2023-02-13T20:44:53;102011.50;;;4.14;100.00
38612;BME280;24368;52.156;20.788;2023-02-13T20:49:54;102011.15;;;4.14;100.00
38612;BME280;24368;52.156;20.788;2023-02-13T20:54:56;102012.65;;;4.12;100.00
38612;BME280;24368;52.156;20.788;2023-02-13T20:59:58;102016.80;;;4.12;100.00
38612;BME280;24368;52.156;20.788;2023-02-13T21:05:00;102008.32;;;4.11;100.00
38612;BME280;24368;52.156;20.788;2023-02-13T21:10:03;102000.59;;;4.09;100.00
38612;BME280;24368;52.156;20.788;2023-02-13T21:15:06;102001.91;;;4.10;100.00
38612;BME280;24368;52.156;20.788;2023-02-13T21:20:09;102001.29;;;4.12;100.00
38612;BME280;24368;52.156;20.788;2023-02-13T21:25:11;102001.04;;;4.03;100.00
38612;BME280;24368;52.156;20.788;2023-02-13T21:30:15;102001.17;;;4.00;100.00
38612;BME280;24368;52.156;20.788;2023-02-13T21:35:17;101998.66;;;4.02;100.00
38612;BME280;24368;52.156;20.788;2023-02-13T21:40:19;101990.73;;;4.00;100.00
38612;BME280;24368;52.156;20.788;2023-02-13T21:45:21;101995.59;;;4.00;100.00
38612;BME280;24368;52.156;20.788;2023-02-13T21:50:23;101996.15;;;3.92;100.00
38612;BME280;24368;52.156;20.788;2023-02-13T21:55:25;101998.25;;;3.91;100.00
38612;BME280;24368;52.156;20.788;2023-02-13T22:00:28;101997.52;;;3.88;100.00
38612;BME280;24368;52.156;20.788;2023-02-13T22:05:30;101994.96;;;3.84;100.00
38612;BME280;24368;52.156;20.788;2023-02-13T22:10:32;101990.62;;;3.83;100.00
38612;BME280;24368;52.156;20.788;2023-02-13T22:15:34;101988.67;;;3.84;100.00
38612;BME280;24368;52.156;20.788;2023-02-13T22:20:36;101984.43;;;3.82;100.00
38612;BME280;24368;52.156;20.788;2023-02-13T22:25:38;101980.40;;;3.78;100.00
38612;BME280;24368;52.156;20.788;2023-02-13T22:30:40;101994.67;;;3.79;100.00
38612;BME280;24368;52.156;20.788;2023-02-13T22:35:46;101989.42;;;3.83;100.00
38612;BME280;24368;52.156;20.788;2023-02-13T22:40:48;101988.58;;;3.78;100.00
38612;BME280;24368;52.156;20.788;2023-02-13T22:45:49;101996.67;;;3.81;100.00
38612;BME280;24368;52.156;20.788;2023-02-13T22:50:51;102008.44;;;3.86;100.00
38612;BME280;24368;52.156;20.788;2023-02-13T22:55:53;102003.73;;;3.90;100.00
38612;BME280;24368;52.156;20.788;2023-02-13T23:00:55;101998.56;;;3.85;100.00
38612;BME280;24368;52.156;20.788;2023-02-13T23:05:57;101993.90;;;3.80;100.00
38612;BME280;24368;52.156;20.788;2023-02-13T23:11:10;101997.41;;;3.80;100.00
38612;BME280;24368;52.156;20.788;2023-02-13T23:16:31;101989.33;;;3.96;100.00
38612;BME280;24368;52.156;20.788;2023-02-13T23:21:53;101989.77;;;3.90;100.00
38612;BME280;24368;52.156;20.788;2023-02-13T23:26:55;101992.66;;;3.92;100.00
38612;BME280;24368;52.156;20.788;2023-02-13T23:31:57;101989.42;;;3.94;100.00
38612;BME280;24368;52.156;20.788;2023-02-13T23:36:59;101994.27;;;3.95;100.00
38612;BME280;24368;52.156;20.788;2023-02-13T23:42:01;101992.46;;;3.93;100.00
38612;BME280;24368;52.156;20.788;2023-02-13T23:47:02;101992.70;;;3.95;100.00
38612;BME280;24368;52.156;20.788;2023-02-13T23:52:04;101990.98;;;3.94;100.00
38612;BME280;24368;52.156;20.788;2023-02-13T23:57:06;101988.48;;;3.92;100.00
